Terminal Aerodrome Forecast
Issued by NWS

Home | Current Version | Previous Version | Text Only | Print | Product List | Glossary On
Versions: 1 2 3 4 5 6 7 8 9 10 11 12 13 14 15
000
FTUS46 KMTR 201100 CCA
TAFSNS
TAF COR
KSNS 201143Z 2012/2112 VRB03KT P6SM OVC019
     FM202000 29011KT P6SM FEW012
     FM210300 29009KT P6SM BKN012
     FM210500 29006KT P6SM OVC009
     FM210800 00000KT P6SM OVC009=

USA.gov is the U.S. government's official web portal to all federal, state and local government web resources and services.